メインページ
METAR-TAF:

METAR-TAF

空港 :

フィリップス・S・W・ゴールドソン国際空港

ベリーズシティ, ベリーズ

緯度: 17-32N, 経度: 088-18W, 海抜: 5m

現時点の気象観測

当レポートは36分前の11:00(UTC)に作成
西の風 5kt
気温 24°C
湿度 100%
気圧 1014 hPa
視程10km以上
高度1500ftの雲はほとんどない
高度4500ftの千切れ雲あり

METAR: MZBZ 141100Z 28005KT 9999 FEW015 BKN045 24/24 A2997 Q1014 NOSIG

時間: 05:36 (11:36 UTC)

予報

当レポートは8時間36分前の03:00(UTC)に作成
予報は14日の 06時(UTC)から 15日の 06時(UTC)まで有効
の風 5kt
視程10km以上
高度2000ftの雲は散在している
確率 40% :
14日の 06時(UTC)から 14日の 12時(UTC)まで一時的に
視程: 5000m
高度1500ftの千切れ雲あり
にわか雨
確率 30% :
14日の 06時(UTC)から 14日の 09時(UTC)まで一時的に
視程: 3000m
高度1200ftの雲は散在している, 積乱雲.
激しい雷雨, 雨
14日の 11時(UTC)から 14日の 13時(UTC)まで徐々に
西/北西の風 10kt

TAF: MZBZ 140300Z 1406/1506 08005KT 9999 SCT020 PROB40 TEMPO 1406/1412 5000 SHRA BKN015 PROB30 TEMPO 1406/1409 3000 TSRA SCT012CB BECMG 1411/1413 29010KT

4,000以上の空港の気象観測と天気予報(METAR報とTAF報)

利用可能な観測所は地図上に黄色い丸と赤い丸で示す。

丸の上にカーソルを重ねると観測所名を参照できる。

次にクリックすると気象観測と天気予報を参照できる。

マップの切り替え:黒色「×」印の緑ボタンをクリックして拡大、「-」印の緑ボタンをクリックして縮小、緑色の三角印をクリックして隣りの地図に切り替え


METAR-TAF: